Time;durP1;ratioP1;P1;durP2;ratioP2;P2;SDS_P1;SDS_P2;PMS_P1;PMS_P2;Temp;Humidity;BMP_temperature;BMP_pressure;BME280_temperature;BME280_humidity;BME280_pressure;Samples;Min_cycle;Max_cycle;Signal;HPM_P1;HPM_P2
2022/04/06 00:02:04;;;;;;;8.00;5.70;;;;;;;5.30;66.85;98808.15;105575;1276;24235;-74
2022/04/06 00:04:32;;;;;;;8.10;5.40;;;;;;;5.30;67.14;98812.32;105938;1276;25258;-76
2022/04/06 00:06:59;;;;;;;8.10;5.40;;;;;;;5.34;67.62;98809.49;105862;1276;25407;-77
2022/04/06 00:09:26;;;;;;;8.70;5.60;;;;;;;5.33;67.84;98806.71;106043;1276;24309;-79
2022/04/06 00:11:53;;;;;;;9.70;5.30;;;;;;;5.32;68.79;98810.91;105855;1276;22532;-77
2022/04/06 00:14:19;;;;;;;6.00;4.10;;;;;;;5.27;69.23;98808.00;106075;1276;22632;-76
2022/04/06 00:16:46;;;;;;;7.30;4.90;;;;;;;5.29;69.06;98809.91;106258;1276;24291;-76
2022/04/06 00:19:14;;;;;;;8.30;5.20;;;;;;;5.29;69.73;98814.44;106039;1276;25450;-75
2022/04/06 00:21:41;;;;;;;7.30;5.30;;;;;;;5.30;69.98;98811.45;106080;1275;25609;-74
2022/04/06 00:24:08;;;;;;;9.40;6.30;;;;;;;5.30;70.02;98814.42;105186;1281;23155;-78
2022/04/06 00:26:35;;;;;;;8.30;5.70;;;;;;;5.34;70.15;98823.29;105472;1281;22870;-74
2022/04/06 00:29:02;;;;;;;9.60;5.90;;;;;;;5.33;70.12;98819.63;105389;1281;22581;-74
2022/04/06 00:31:31;;;;;;;7.70;5.90;;;;;;;5.37;70.50;98818.36;105448;1281;22568;-72
2022/04/06 00:33:59;;;;;;;8.60;6.60;;;;;;;5.39;70.75;98817.10;105022;1285;22673;-73
2022/04/06 00:36:25;;;;;;;8.50;6.10;;;;;;;5.37;71.12;98813.64;104951;1287;22639;-74
2022/04/06 00:38:53;;;;;;;10.30;6.40;;;;;;;5.39;71.03;98808.56;105028;1287;22594;-77
2022/04/06 00:41:21;;;;;;;10.00;7.00;;;;;;;5.38;71.30;98805.59;104966;1287;24226;-74
2022/04/06 00:44:09;;;;;;;8.40;6.30;;;;;;;5.39;71.68;98808.55;105399;1282;22756;-76
2022/04/06 00:46:35;;;;;;;9.50;7.20;;;;;;;5.39;71.82;98808.22;104853;1287;22896;-75
2022/04/06 00:49:03;;;;;;;8.80;5.90;;;;;;;5.38;72.23;98807.70;104818;1287;24011;-79
2022/04/06 00:51:31;;;;;;;9.60;7.50;;;;;;;5.37;72.18;98806.48;104888;1282;23398;-79
2022/04/06 00:53:58;;;;;;;7.70;6.30;;;;;;;5.36;72.31;98802.30;105564;1281;23717;-76
2022/04/06 00:56:25;;;;;;;10.10;7.10;;;;;;;5.39;72.18;98798.77;105353;1281;22802;-77
2022/04/06 00:58:52;;;;;;;9.60;7.20;;;;;;;5.40;72.71;98787.23;105537;1281;24304;-77
2022/04/06 01:01:19;;;;;;;8.60;6.70;;;;;;;5.41;72.65;98794.90;105511;1281;26770;-73
2022/04/06 01:03:46;;;;;;;10.00;7.40;;;;;;;5.43;72.59;98796.61;105308;1281;22528;-77
2022/04/06 01:06:13;;;;;;;10.80;7.50;;;;;;;5.47;72.59;98795.88;105749;1276;22790;-76
2022/04/06 01:08:40;;;;;;;8.50;6.80;;;;;;;5.42;72.69;98790.52;105828;1276;25540;-75
2022/04/06 01:11:07;;;;;;;9.40;6.90;;;;;;;5.43;73.02;98793.11;105815;1276;25430;-76
2022/04/06 01:13:34;;;;;;;10.50;6.50;;;;;;;5.42;73.01;98794.71;106041;1276;25249;-75
2022/04/06 01:16:02;;;;;;;12.40;7.60;;;;;;;5.42;73.10;98795.60;105833;1274;25268;-74
2022/04/06 01:18:32;;;;;;;10.70;7.60;;;;;;;5.40;73.06;98803.66;105972;1276;24220;-79
2022/04/06 01:20:59;;;;;;;9.40;7.00;;;;;;;5.42;73.16;98802.56;106079;1275;26523;-75
2022/04/06 01:23:25;;;;;;;9.00;7.30;;;;;;;5.45;73.45;98805.50;105960;1276;22660;-77
2022/04/06 01:25:53;;;;;;;9.70;7.70;;;;;;;5.47;73.40;98798.85;105820;1276;25243;-78
2022/04/06 01:28:20;;;;;;;9.50;7.10;;;;;;;5.43;73.55;98799.25;106018;1276;25508;-79
2022/04/06 01:30:46;;;;;;;11.80;7.70;;;;;;;5.45;73.44;98808.11;106081;1276;22871;-79
2022/04/06 01:33:14;;;;;;;10.00;7.10;;;;;;;5.46;73.61;98800.95;105758;1276;24295;-78
2022/04/06 01:35:42;;;;;;;8.40;6.10;;;;;;;5.46;73.84;98798.34;105853;1276;22588;-75
2022/04/06 01:38:09;;;;;;;8.40;7.00;;;;;;;5.41;73.92;98810.08;105849;1276;25433;-76
2022/04/06 01:40:36;;;;;;;10.00;6.60;;;;;;;5.39;74.25;98810.12;106046;1276;22794;-77
2022/04/06 01:43:03;;;;;;;11.50;7.70;;;;;;;5.43;74.09;98810.41;106010;1276;25316;-75
2022/04/06 01:45:30;;;;;;;6.80;5.90;;;;;;;5.49;74.07;98797.07;106292;1276;23829;-74
2022/04/06 01:47:57;;;;;;;9.40;6.80;;;;;;;5.49;73.75;98800.56;105886;1276;22611;-76
2022/04/06 01:53:09;;;;;;;10.20;8.10;;;;;;;5.51;73.67;98794.42;106318;1279;22572;-73
2022/04/06 01:55:36;;;;;;;8.90;6.70;;;;;;;5.46;73.87;98799.72;106233;1279;25377;-75
2022/04/06 01:58:03;;;;;;;12.00;8.60;;;;;;;5.44;73.82;98799.05;105413;1281;24101;-75
2022/04/06 02:00:30;;;;;;;10.70;8.50;;;;;;;5.47;73.92;98796.05;105527;1278;22598;-75
2022/04/06 02:02:57;;;;;;;9.00;7.80;;;;;;;5.47;73.94;98796.23;105543;1279;25319;-73
2022/04/06 02:05:24;;;;;;;10.40;8.30;;;;;;;5.49;74.16;98792.70;105543;1281;22750;-75
2022/04/06 02:07:51;;;;;;;7.80;6.90;;;;;;;5.52;74.16;98792.13;105761;1276;26948;-75
2022/04/06 02:10:17;;;;;;;9.40;8.20;;;;;;;5.55;74.15;98792.10;105956;1276;22560;-72
2022/04/06 02:12:45;;;;;;;10.80;8.30;;;;;;;5.63;74.45;98795.83;105895;1276;22677;-76
2022/04/06 02:15:14;;;;;;;13.40;8.10;;;;;;;5.66;74.11;98799.09;105382;1281;23983;-76
2022/04/06 02:17:43;;;;;;;8.70;6.70;;;;;;;5.68;73.59;98813.73;105411;1281;25520;-75
2022/04/06 02:20:11;;;;;;;10.70;6.00;;;;;;;5.55;72.99;98816.55;105554;1281;25541;-73
2022/04/06 02:22:41;;;;;;;7.90;5.60;;;;;;;5.45;72.47;98822.95;105591;1281;22664;-74
2022/04/06 02:25:09;;;;;;;8.90;5.80;;;;;;;5.39;72.46;98832.13;105584;1280;22563;-77
2022/04/06 02:27:48;;;;;;;8.10;4.70;;;;;;;5.28;72.29;98833.48;105201;1282;24318;-72
2022/04/06 02:30:16;;;;;;;6.80;4.80;;;;;;;5.21;72.19;98825.89;105477;1281;22620;-73
2022/04/06 02:32:43;;;;;;;8.10;6.00;;;;;;;5.12;72.07;98830.17;105638;1276;24226;-72
2022/04/06 02:35:11;;;;;;;9.30;5.80;;;;;;;5.08;72.44;98822.38;105612;1276;22531;-77
2022/04/06 02:37:41;;;;;;;10.20;6.00;;;;;;;5.11;72.63;98819.03;105937;1276;25298;-76
2022/04/06 02:40:11;;;;;;;12.30;6.80;;;;;;;5.13;72.53;98830.36;105700;1276;22554;-76
2022/04/06 02:42:38;;;;;;;10.60;6.60;;;;;;;5.12;72.46;98829.14;105768;1276;24951;-74
2022/04/06 02:45:08;;;;;;;7.70;5.40;;;;;;;5.17;72.43;98837.11;106748;1276;22531;-80
2022/04/06 02:47:36;;;;;;;10.40;7.00;;;;;;;5.18;72.18;98837.79;106345;1276;22527;-76
2022/04/06 02:50:05;;;;;;;8.70;6.10;;;;;;;5.23;72.32;98839.30;106047;1274;22547;-79
2022/04/06 02:52:32;;;;;;;9.10;5.90;;;;;;;5.32;72.47;98839.54;105968;1276;24799;-81
2022/04/06 02:54:59;;;;;;;8.50;5.50;;;;;;;5.34;72.18;98838.65;105889;1276;23406;-77
2022/04/06 02:57:26;;;;;;;8.60;5.70;;;;;;;5.33;71.74;98841.28;106502;1276;22896;-78
2022/04/06 02:59:53;;;;;;;10.90;6.20;;;;;;;5.17;71.69;98842.17;106370;1276;22607;-78
2022/04/06 03:02:20;;;;;;;11.50;6.40;;;;;;;5.13;71.85;98853.03;106493;1276;24241;-81
2022/04/06 03:04:47;;;;;;;10.40;6.30;;;;;;;5.09;72.10;98850.29;106027;1276;22781;-80
2022/04/06 03:07:18;;;;;;;11.30;6.50;;;;;;;5.15;72.47;98853.00;105859;1276;22535;-79
2022/04/06 03:09:45;;;;;;;9.50;6.70;;;;;;;5.18;72.01;98853.31;105780;1276;22592;-80
2022/04/06 03:12:12;;;;;;;9.30;5.50;;;;;;;5.12;71.99;98859.86;105804;1276;24334;-77
2022/04/06 03:14:39;;;;;;;14.60;6.80;;;;;;;5.07;72.27;98864.61;105798;1276;22626;-80
2022/04/06 03:17:06;;;;;;;9.00;6.50;;;;;;;5.15;72.41;98860.52;105805;1276;22661;-80
2022/04/06 03:19:33;;;;;;;7.50;6.40;;;;;;;5.27;72.50;98869.09;105756;1276;22757;-77
2022/04/06 03:22:01;;;;;;;11.50;7.10;;;;;;;5.29;72.21;98870.13;105792;1276;25615;-75
2022/04/06 03:24:28;;;;;;;12.00;7.60;;;;;;;5.24;71.83;98874.02;105843;1276;22570;-78
2022/04/06 03:26:54;;;;;;;14.70;9.20;;;;;;;5.10;71.92;98881.86;105744;1276;22559;-78
2022/04/06 03:29:21;;;;;;;12.00;7.90;;;;;;;5.03;72.16;98885.77;106141;1281;22550;-77
2022/04/06 03:31:48;;;;;;;11.00;7.40;;;;;;;4.95;72.35;98886.91;105571;1281;24297;-78
2022/04/06 03:34:15;;;;;;;13.70;8.30;;;;;;;4.91;72.49;98887.46;105695;1281;24023;-76
2022/04/06 03:36:42;;;;;;;11.60;7.30;;;;;;;4.92;72.72;98887.28;105546;1281;24493;-77
2022/04/06 03:39:09;;;;;;;9.70;6.50;;;;;;;4.92;72.73;98888.17;105297;1281;22563;-78
2022/04/06 03:41:36;;;;;;;9.70;7.20;;;;;;;4.93;73.02;98883.96;105523;1281;24762;-77
2022/04/06 03:44:03;;;;;;;9.80;7.00;;;;;;;5.00;73.03;98889.12;105679;1281;25381;-80
2022/04/06 03:46:30;;;;;;;10.20;7.50;;;;;;;5.04;72.74;98899.38;105509;1281;22555;-81
2022/04/06 03:48:58;;;;;;;11.90;6.80;;;;;;;5.08;72.81;98900.72;105995;1276;22563;-81
2022/04/06 03:51:25;;;;;;;9.90;7.20;;;;;;;5.16;72.78;98903.97;106024;1276;23918;-80
2022/04/06 03:53:52;;;;;;;8.70;6.90;;;;;;;5.18;72.58;98897.14;105821;1276;22553;-76
2022/04/06 03:56:18;;;;;;;8.50;7.30;;;;;;;5.32;72.50;98904.83;105876;1276;25315;-76
2022/04/06 03:58:45;;;;;;;10.40;7.40;;;;;;;5.36;72.12;98909.67;106066;1276;24287;-79
2022/04/06 04:01:12;;;;;;;9.90;7.30;;;;;;;5.33;72.33;98909.88;105795;1276;23478;-76
2022/04/06 04:03:39;;;;;;;11.80;8.30;;;;;;;5.36;72.28;98908.27;105830;1276;22616;-80
2022/04/06 04:06:06;;;;;;;10.80;8.00;;;;;;;5.36;72.20;98917.54;106112;1276;22489;-78
2022/04/06 04:08:33;;;;;;;9.90;7.50;;;;;;;5.38;72.30;98923.09;105866;1276;22538;-78
2022/04/06 04:11:00;;;;;;;10.40;7.40;;;;;;;5.33;72.16;98922.80;105588;1281;25272;-81
2022/04/06 04:13:27;;;;;;;10.70;8.40;;;;;;;5.21;72.05;98932.34;105611;1282;24312;-80
2022/04/06 04:15:54;;;;;;;11.70;9.30;;;;;;;5.11;72.27;98932.98;105825;1281;25468;-77
2022/04/06 04:18:21;;;;;;;10.60;7.40;;;;;;;5.09;72.26;98931.25;105764;1282;22590;-80
2022/04/06 04:20:48;;;;;;;8.60;7.60;;;;;;;4.98;71.94;98936.42;105691;1281;22575;-79
2022/04/06 04:23:15;;;;;;;8.00;6.30;;;;;;;4.82;72.11;98937.45;106565;1281;22494;-82
2022/04/06 04:25:42;;;;;;;7.30;6.60;;;;;;;4.79;72.54;98936.60;107426;1281;22620;-84
2022/04/06 04:28:09;;;;;;;9.40;6.80;;;;;;;4.80;72.49;98940.60;107791;1281;22536;-83
2022/04/06 04:30:35;;;;;;;11.20;7.90;;;;;;;4.83;72.64;98939.02;108828;1276;22532;-84
2022/04/06 04:33:02;;;;;;;9.20;7.40;;;;;;;4.87;72.55;98941.23;108871;1276;22559;-83
2022/04/06 04:35:29;;;;;;;9.10;7.30;;;;;;;4.87;72.52;98938.44;108964;1276;22615;-83
2022/04/06 04:37:56;;;;;;;7.30;6.20;;;;;;;4.98;72.73;98941.48;107933;1276;24664;-83
2022/04/06 04:40:23;;;;;;;8.40;6.80;;;;;;;5.07;72.57;98945.41;107379;1276;24423;-79
2022/04/06 04:42:50;;;;;;;9.10;6.70;;;;;;;5.11;72.32;98943.45;106903;1274;24477;-80
2022/04/06 04:45:17;;;;;;;8.00;6.50;;;;;;;5.17;72.41;98946.01;106780;1276;22541;-78
2022/04/06 04:47:44;;;;;;;8.30;7.00;;;;;;;5.25;72.48;98941.38;106253;1276;22950;-80
2022/04/06 04:50:11;;;;;;;9.00;6.80;;;;;;;5.32;72.39;98934.67;106316;1276;25495;-81
2022/04/06 04:52:38;;;;;;;8.20;5.90;;;;;;;5.38;72.08;98938.81;106794;1276;22559;-82
2022/04/06 04:55:05;;;;;;;7.70;6.50;;;;;;;5.41;71.90;98945.41;107167;1276;25255;-80
2022/04/06 04:57:32;;;;;;;8.00;6.70;;;;;;;5.44;71.78;98949.91;107326;1276;22548;-83
2022/04/06 04:59:59;;;;;;;8.70;6.60;;;;;;;5.45;71.41;98957.21;106925;1276;22970;-83
2022/04/06 05:02:25;;;;;;;9.50;5.60;;;;;;;5.29;71.15;98961.24;106978;1276;24291;-80
2022/04/06 05:04:52;;;;;;;7.60;5.80;;;;;;;5.16;71.36;98965.75;106664;1276;22692;-83
2022/04/06 05:07:19;;;;;;;9.00;6.10;;;;;;;5.13;71.97;98969.44;106520;1276;25432;-83
2022/04/06 05:09:46;;;;;;;9.00;6.20;;;;;;;5.23;72.24;98974.23;106038;1276;25247;-84
2022/04/06 05:12:13;;;;;;;7.70;6.70;;;;;;;5.33;72.06;98974.30;106059;1276;22623;-79
2022/04/06 05:14:40;;;;;;;8.10;6.20;;;;;;;5.39;71.93;98976.68;106057;1276;26520;-77
2022/04/06 05:17:07;;;;;;;6.40;5.40;;;;;;;5.34;71.73;98977.26;106057;1276;22574;-76
2022/04/06 05:19:34;;;;;;;6.90;6.20;;;;;;;5.39;71.67;98980.00;105983;1276;24240;-77
2022/04/06 05:22:01;;;;;;;7.30;6.00;;;;;;;5.41;71.56;98976.13;105913;1276;24308;-78
2022/04/06 05:24:28;;;;;;;7.20;6.10;;;;;;;5.44;71.72;98973.83;106146;1276;25270;-77
2022/04/06 05:26:55;;;;;;;7.60;6.10;;;;;;;5.50;71.66;98980.05;105831;1276;25566;-77
2022/04/06 05:29:22;;;;;;;6.40;5.30;;;;;;;5.56;71.52;98984.87;105820;1276;26573;-78
2022/04/06 05:31:48;;;;;;;8.40;5.50;;;;;;;5.65;71.38;98989.15;105924;1276;25874;-77
2022/04/06 05:34:16;;;;;;;8.40;6.50;;;;;;;5.72;71.39;98993.41;106009;1276;23353;-76
2022/04/06 05:36:43;;;;;;;8.10;6.30;;;;;;;5.77;71.16;98998.80;105896;1276;22549;-77
2022/04/06 05:39:12;;;;;;;7.20;6.10;;;;;;;5.80;71.21;99003.11;106127;1275;22547;-81
2022/04/06 05:41:40;;;;;;;7.60;5.40;;;;;;;5.84;70.93;99001.67;106160;1276;25383;-83
2022/04/06 05:44:07;;;;;;;8.10;6.00;;;;;;;5.80;70.49;99001.55;106244;1276;22545;-83
2022/04/06 05:46:34;;;;;;;7.50;5.50;;;;;;;5.73;70.44;99006.51;106212;1276;24336;-82
2022/04/06 05:49:02;;;;;;;6.00;4.90;;;;;;;5.73;70.48;99010.55;106097;1277;25241;-84
2022/04/06 05:51:29;;;;;;;6.90;5.30;;;;;;;5.69;70.14;99009.70;106507;1276;26494;-82
2022/04/06 05:53:55;;;;;;;9.70;5.90;;;;;;;5.62;70.07;99013.98;106524;1276;22844;-82
2022/04/06 05:56:23;;;;;;;8.00;6.10;;;;;;;5.54;70.12;99021.73;107369;1276;23854;-82
2022/04/06 05:58:50;;;;;;;8.60;5.90;;;;;;;5.51;70.50;99022.48;107303;1276;22573;-83
2022/04/06 06:01:17;;;;;;;8.90;5.80;;;;;;;5.52;70.41;99025.42;107066;1276;24266;-83
2022/04/06 06:03:44;;;;;;;8.80;5.70;;;;;;;5.53;70.70;99025.24;106561;1276;22548;-82
2022/04/06 06:06:10;;;;;;;7.50;5.60;;;;;;;5.63;71.02;99020.61;106171;1276;24305;-82
2022/04/06 06:08:37;;;;;;;10.80;7.00;;;;;;;5.73;71.07;99018.05;106354;1276;24229;-84
2022/04/06 06:11:05;;;;;;;11.20;7.60;;;;;;;5.81;70.75;99025.65;106191;1275;22518;-83
2022/04/06 06:13:32;;;;;;;11.80;7.30;;;;;;;5.83;70.04;99031.56;106073;1276;24395;-82
2022/04/06 06:16:00;;;;;;;16.80;8.70;;;;;;;5.76;69.86;99039.15;106289;1276;25311;-83
2022/04/06 06:18:27;;;;;;;16.00;10.00;;;;;;;5.69;69.43;99042.36;106039;1276;24242;-80
2022/04/06 06:20:56;;;;;;;14.70;9.40;;;;;;;5.61;69.50;99035.28;105722;1277;24241;-83
2022/04/06 06:23:23;;;;;;;16.40;9.40;;;;;;;5.51;69.84;99036.61;106128;1276;25948;-80
2022/04/06 06:25:50;;;;;;;16.20;10.10;;;;;;;5.52;70.03;99036.95;105993;1276;25349;-83
2022/04/06 06:28:17;;;;;;;16.20;8.60;;;;;;;5.51;69.91;99039.41;106229;1276;22565;-83
2022/04/06 06:30:45;;;;;;;14.70;9.80;;;;;;;5.53;70.25;99040.61;105971;1277;22566;-82
2022/04/06 06:33:13;;;;;;;14.90;9.40;;;;;;;5.52;70.16;99034.69;106157;1276;25264;-83
2022/04/06 06:35:40;;;;;;;15.40;9.50;;;;;;;5.63;70.69;99036.14;105983;1276;24217;-82
2022/04/06 06:38:07;;;;;;;14.70;9.40;;;;;;;5.75;70.97;99032.89;106229;1276;22547;-82
2022/04/06 06:40:34;;;;;;;15.00;9.30;;;;;;;5.87;70.93;99033.27;105894;1279;25256;-83
2022/04/06 06:43:01;;;;;;;14.80;9.60;;;;;;;5.94;70.86;99030.73;105921;1279;22541;-83
2022/04/06 06:45:29;;;;;;;14.50;9.20;;;;;;;6.01;70.83;99031.17;106152;1277;22712;-83
2022/04/06 06:47:56;;;;;;;17.00;10.30;;;;;;;6.04;70.60;99030.11;106011;1279;22700;-81
2022/04/06 06:50:24;;;;;;;14.40;9.00;;;;;;;6.10;70.45;99031.61;106087;1279;24376;-83
2022/04/06 06:52:51;;;;;;;14.30;8.20;;;;;;;6.17;70.35;99034.15;105849;1279;22707;-84
2022/04/06 06:55:19;;;;;;;15.80;9.40;;;;;;;6.24;70.18;99033.72;106175;1279;25259;-82
2022/04/06 06:57:46;;;;;;;12.00;8.60;;;;;;;6.20;69.50;99035.34;106099;1279;23965;-83
2022/04/06 07:00:14;;;;;;;14.20;8.50;;;;;;;6.13;69.42;99031.92;106313;1276;24226;-83
2022/04/06 07:02:42;;;;;;;13.40;8.20;;;;;;;6.04;69.40;99026.61;106378;1276;23985;-83
2022/04/06 07:05:11;;;;;;;12.50;7.70;;;;;;;6.02;69.97;99029.07;106647;1276;26028;-85
2022/04/06 07:07:49;;;;;;;15.50;9.00;;;;;;;6.02;70.31;99030.30;106369;1276;22722;-82
2022/04/06 07:10:20;;;;;;;15.70;8.50;;;;;;;6.07;70.32;99033.05;106322;1276;22766;-81
2022/04/06 07:12:47;;;;;;;16.90;10.10;;;;;;;6.15;70.46;99031.56;106434;1276;25594;-82
2022/04/06 07:15:15;;;;;;;17.00;10.70;;;;;;;6.24;70.41;99032.32;106435;1276;23793;-82
2022/04/06 07:17:42;;;;;;;17.40;9.70;;;;;;;6.32;70.09;99034.66;106587;1276;537015;-80
2022/04/06 07:20:11;;;;;;;17.60;11.40;;;;;;;6.29;69.89;99033.82;107303;1276;22572;-80
2022/04/06 07:22:38;;;;;;;17.90;11.70;;;;;;;6.30;69.92;99033.27;108075;1276;22566;-83
2022/04/06 07:25:05;;;;;;;17.60;11.20;;;;;;;6.36;70.17;99036.35;106951;1276;25938;-80
2022/04/06 07:27:36;;;;;;;18.90;12.40;;;;;;;6.38;69.95;99031.23;107220;1276;23355;-81
2022/04/06 07:30:05;;;;;;;16.90;12.00;;;;;;;6.44;69.93;99032.41;107128;1276;24350;-80
2022/04/06 07:32:34;;;;;;;15.70;10.80;;;;;;;6.49;70.20;99035.65;107192;1276;22996;-82
2022/04/06 07:35:04;;;;;;;17.80;11.20;;;;;;;6.45;69.41;99034.15;107089;1276;25883;-82
2022/04/06 07:37:39;;;;;;;19.00;11.10;;;;;;;6.36;69.73;99040.20;106871;1276;25321;-84
2022/04/06 07:40:09;;;;;;;14.10;9.00;;;;;;;6.37;70.17;99030.05;107067;1276;22493;-83
2022/04/06 07:42:38;;;;;;;15.00;9.30;;;;;;;6.48;70.28;99035.15;107060;1276;22533;-80
2022/04/06 07:45:07;;;;;;;12.20;8.70;;;;;;;6.53;70.16;99029.29;106095;1282;22568;-82
2022/04/06 07:47:37;;;;;;;8.70;7.40;;;;;;;6.57;70.19;99033.25;106818;1281;22549;-82
2022/04/06 07:50:05;;;;;;;11.10;8.00;;;;;;;6.56;69.94;99036.06;106721;1281;22484;-82
2022/04/06 07:52:32;;;;;;;8.80;7.80;;;;;;;6.49;69.98;99036.18;106858;1281;22529;-81
2022/04/06 07:54:59;;;;;;;9.90;7.80;;;;;;;6.49;70.19;99034.78;106988;1281;22555;-82
2022/04/06 07:57:28;;;;;;;10.30;7.30;;;;;;;6.50;70.17;99034.06;107178;1281;22661;-81
2022/04/06 07:59:57;;;;;;;11.40;6.00;;;;;;;6.50;70.06;99031.27;107265;1282;22944;-81
2022/04/06 08:02:24;;;;;;;8.00;6.30;;;;;;;6.52;70.17;99028.61;107348;1281;22660;-83
2022/04/06 08:04:52;;;;;;;6.50;5.30;;;;;;;6.55;70.14;99026.98;106878;1282;25498;-81
2022/04/06 08:07:18;;;;;;;6.20;4.60;;;;;;;6.66;70.04;99022.98;107308;1281;22672;-84
2022/04/06 08:09:46;;;;;;;6.00;5.00;;;;;;;6.79;69.93;99021.21;107012;1281;24030;-82
2022/04/06 08:12:13;;;;;;;6.00;5.30;;;;;;;6.87;69.67;99021.27;107179;1281;25386;-86
2022/04/06 08:14:40;;;;;;;5.80;5.20;;;;;;;6.89;69.59;99021.23;106532;1281;22551;-79
2022/04/06 08:17:07;;;;;;;7.10;5.30;;;;;;;6.90;69.64;99023.66;106935;1281;22586;-81
2022/04/06 08:19:34;;;;;;;11.00;7.30;;;;;;;6.91;69.49;99022.42;106927;1281;22693;-81
2022/04/06 08:22:01;;;;;;;8.50;7.20;;;;;;;6.96;69.57;99021.66;106551;1282;22533;-81
2022/04/06 08:24:35;;;;;;;7.50;6.70;;;;;;;7.00;69.27;99021.05;107006;1281;22970;-81
2022/04/06 08:27:02;;;;;;;10.40;7.30;;;;;;;7.00;69.10;99023.68;106491;1280;25385;-83
2022/04/06 08:29:29;;;;;;;8.20;7.30;;;;;;;7.00;68.97;99026.29;106786;1276;22541;-83
2022/04/06 08:31:56;;;;;;;9.30;7.60;;;;;;;6.98;69.06;99024.41;106180;1276;23150;-83
2022/04/06 08:34:23;;;;;;;8.90;8.00;;;;;;;6.98;69.16;99027.05;106284;1276;22705;-84
2022/04/06 08:36:50;;;;;;;9.60;7.80;;;;;;;6.92;69.10;99017.50;106029;1276;24246;-84
2022/04/06 08:39:17;;;;;;;8.60;7.20;;;;;;;6.90;69.10;99027.33;106516;1276;22551;-83
2022/04/06 08:41:55;;;;;;;8.40;7.50;;;;;;;6.87;69.38;99031.95;105970;1276;25396;-83
2022/04/06 08:44:23;;;;;;;10.10;7.60;;;;;;;6.87;69.70;99041.55;105874;1276;22544;-83
2022/04/06 08:46:52;;;;;;;10.60;8.00;;;;;;;6.87;69.74;99042.27;105876;1276;22608;-82
2022/04/06 08:49:23;;;;;;;9.70;8.20;;;;;;;6.88;69.89;99039.10;105730;1276;24241;-83
2022/04/06 08:51:53;;;;;;;10.80;9.80;;;;;;;6.89;70.18;99046.10;105766;1276;24258;-82
2022/04/06 08:54:20;;;;;;;13.30;10.20;;;;;;;6.89;70.13;99055.53;106090;1276;24277;-83
2022/04/06 08:56:47;;;;;;;13.60;10.70;;;;;;;6.85;69.91;99044.75;105501;1281;25367;-82
2022/04/06 08:59:14;;;;;;;11.30;9.40;;;;;;;6.85;69.99;99039.48;105404;1282;25554;-82
2022/04/06 09:01:40;;;;;;;10.50;9.50;;;;;;;6.84;70.04;99036.71;105116;1284;24224;-81
2022/04/06 09:04:08;;;;;;;14.40;10.00;;;;;;;6.83;69.81;99041.45;105612;1281;22537;-82
2022/04/06 09:06:55;;;;;;;11.60;8.80;;;;;;;6.83;70.14;99035.33;106045;1281;24371;-81
2022/04/06 09:09:24;;;;;;;10.50;9.00;;;;;;;6.87;70.22;99034.58;106713;1281;24154;-83
2022/04/06 09:11:52;;;;;;;9.80;8.70;;;;;;;6.88;70.07;99033.49;106460;1281;22532;-83
2022/04/06 09:14:30;;;;;;;11.10;9.60;;;;;;;6.90;70.16;99028.21;105921;1277;25421;-83
2022/04/06 09:17:02;;;;;;;12.40;9.60;;;;;;;6.95;70.39;99025.85;105952;1276;26007;-83
2022/04/06 09:19:29;;;;;;;11.40;10.20;;;;;;;7.01;70.61;99028.04;105986;1276;24719;-86
2022/04/06 09:21:57;;;;;;;13.80;9.10;;;;;;;7.02;70.17;99024.70;105714;1276;25489;-83
2022/04/06 09:24:26;;;;;;;11.40;8.80;;;;;;;7.00;70.38;99019.30;105711;1282;22575;-83
2022/04/06 09:27:02;;;;;;;8.80;8.00;;;;;;;7.04;70.54;99011.71;105819;1281;23152;-84
2022/04/06 09:29:30;;;;;;;9.90;7.60;;;;;;;7.03;70.33;99010.33;105667;1281;25275;-83
2022/04/06 09:32:10;;;;;;;8.60;7.50;;;;;;;7.02;70.66;99009.11;105676;1281;24240;-84
2022/04/06 09:34:57;;;;;;;8.30;7.50;;;;;;;7.05;70.57;99011.35;105235;1281;25419;-83
2022/04/06 09:37:29;;;;;;;8.50;7.70;;;;;;;7.07;70.48;99009.23;105532;1281;22700;-82
2022/04/06 09:40:06;;;;;;;9.80;7.40;;;;;;;7.00;70.46;99005.13;105273;1282;25269;-81
2022/04/06 09:42:33;;;;;;;8.00;7.20;;;;;;;7.03;70.62;99000.33;105470;1276;22730;-81
2022/04/06 09:47:54;;;;;;;9.50;8.50;;;;;;;7.05;70.78;99000.15;107402;1276;25430;-83
2022/04/06 09:50:24;;;;;;;10.30;8.30;;;;;;;7.06;70.93;99007.84;106068;1276;22722;-83
2022/04/06 09:52:53;;;;;;;12.60;8.50;;;;;;;7.04;70.93;99016.77;105946;1276;22537;-82
2022/04/06 09:55:22;;;;;;;8.80;7.80;;;;;;;6.99;71.03;99007.42;105983;1276;25378;-83
2022/04/06 09:57:55;;;;;;;8.00;7.20;;;;;;;6.98;71.13;99000.09;105992;1276;22705;-82
2022/04/06 10:00:24;;;;;;;10.10;8.40;;;;;;;7.08;70.95;98997.30;105789;1278;22577;-82
2022/04/06 10:03:03;;;;;;;9.40;8.30;;;;;;;7.03;70.96;98988.80;106017;1276;22658;-83
2022/04/06 10:05:33;;;;;;;8.80;7.90;;;;;;;7.06;70.83;99021.66;105731;1277;22707;-82
2022/04/06 10:08:07;;;;;;;9.40;7.60;;;;;;;7.03;70.71;99011.20;105805;1276;25264;-82
2022/04/06 10:10:41;;;;;;;9.50;8.50;;;;;;;6.96;70.83;99019.73;105902;1276;25787;-83
2022/04/06 10:13:08;;;;;;;9.90;8.50;;;;;;;6.95;71.19;99023.94;105985;1276;22542;-83
2022/04/06 10:15:57;;;;;;;8.80;7.90;;;;;;;6.93;71.15;99014.35;105958;1276;22589;-81
2022/04/06 10:18:27;;;;;;;10.60;8.80;;;;;;;6.89;71.12;99012.48;106305;1278;23919;-83
2022/04/06 10:21:06;;;;;;;9.50;8.20;;;;;;;6.88;71.47;99000.93;106177;1276;22698;-82
2022/04/06 10:24:04;;;;;;;8.10;7.30;;;;;;;6.96;71.29;98997.48;105987;1276;25390;-82
2022/04/06 10:26:59;;;;;;;9.60;7.90;;;;;;;7.04;71.47;98990.88;106101;1276;22715;-81
2022/04/06 10:29:26;;;;;;;9.20;8.40;;;;;;;7.12;71.74;98983.91;106094;1276;23030;-82
2022/04/06 10:31:54;;;;;;;9.70;8.60;;;;;;;7.21;71.82;98983.06;107624;1276;25380;-82
2022/04/06 10:34:25;;;;;;;10.50;9.10;;;;;;;7.24;71.55;98979.66;106310;1276;24394;-81
2022/04/06 10:37:12;;;;;;;11.00;9.80;;;;;;;7.22;71.66;98977.77;106337;1276;22542;-84
2022/04/06 10:39:51;;;;;;;9.30;8.30;;;;;;;7.26;72.13;98982.27;106359;1276;23719;-83
2022/04/06 10:42:27;;;;;;;9.90;8.70;;;;;;;7.37;72.32;98982.59;106213;1276;22932;-82
2022/04/06 10:44:55;;;;;;;11.70;10.40;;;;;;;7.50;72.48;98977.64;106463;1276;22554;-82
2022/04/06 10:47:23;;;;;;;11.00;9.80;;;;;;;7.62;72.38;98974.59;106295;1277;22468;-83
2022/04/06 10:50:21;;;;;;;9.80;8.80;;;;;;;7.73;72.41;98973.85;106384;1276;22534;-81
2022/04/06 10:52:50;;;;;;;11.10;9.90;;;;;;;7.82;72.26;98968.93;106627;1276;25556;-82
2022/04/06 10:55:24;;;;;;;12.40;10.80;;;;;;;7.85;72.24;98964.65;107031;1276;22580;-81
2022/04/06 10:58:03;;;;;;;9.80;8.80;;;;;;;7.90;71.87;98967.39;106552;1276;25376;-82
2022/04/06 11:00:31;;;;;;;11.30;9.80;;;;;;;7.85;71.86;98962.23;106625;1276;22876;-81
2022/04/06 11:03:19;;;;;;;11.70;9.90;;;;;;;7.95;72.23;98968.14;106617;1276;24934;-83
2022/04/06 11:05:49;;;;;;;11.10;10.00;;;;;;;8.15;72.24;98962.27;106595;1276;22833;-82
2022/04/06 11:11:46;;;;;;;12.40;10.70;;;;;;;8.42;72.18;98959.38;106663;1276;24302;-81
2022/04/06 11:14:28;;;;;;;13.40;10.80;;;;;;;8.48;72.08;98961.02;106044;1278;25280;-82
2022/04/06 11:16:55;;;;;;;13.00;11.50;;;;;;;8.56;72.20;98958.04;106386;1278;25394;-81
2022/04/06 11:19:23;;;;;;;13.00;11.60;;;;;;;8.63;72.09;98955.78;106756;1276;24812;-83
2022/04/06 11:21:53;;;;;;;14.00;12.50;;;;;;;8.66;72.07;98954.45;106753;1276;22930;-82
2022/04/06 11:24:21;;;;;;;14.00;11.20;;;;;;;8.69;72.16;98948.27;106713;1277;22618;-82
2022/04/06 11:26:49;;;;;;;14.10;10.50;;;;;;;8.74;72.23;98941.83;106646;1277;25370;-84
2022/04/06 11:29:17;;;;;;;12.90;10.10;;;;;;;8.82;72.15;98942.48;106972;1277;24243;-83
2022/04/06 11:32:04;;;;;;;12.80;11.40;;;;;;;8.87;72.13;98945.53;106571;1278;22797;-83
2022/04/06 11:34:40;;;;;;;13.50;12.20;;;;;;;8.82;71.73;98940.22;106517;1277;23623;-82
2022/04/06 11:37:09;;;;;;;12.00;10.80;;;;;;;8.74;71.75;98934.61;106194;1281;25634;-83
2022/04/06 11:39:36;;;;;;;14.30;12.80;;;;;;;8.64;72.15;98939.58;106086;1281;25241;-84
2022/04/06 11:42:06;;;;;;;16.30;12.20;;;;;;;8.65;72.67;98936.58;106757;1281;24244;-86
2022/04/06 11:44:34;;;;;;;13.80;12.20;;;;;;;8.61;72.75;98939.52;105584;1284;24273;-82
2022/04/06 11:47:01;;;;;;;14.60;11.60;;;;;;;8.62;72.97;98939.30;105487;1281;22755;-80